sensor_id;sensor_type;location;lat;lon;timestamp;P1;durP1;ratioP1;P2;durP2;ratioP2
11951;SDS011;6036;41.840;23.486;2022-11-04T00:01:43;14.50;;;5.85;;
11951;SDS011;6036;41.840;23.486;2022-11-04T00:04:10;12.02;;;5.20;;
11951;SDS011;6036;41.840;23.486;2022-11-04T00:06:37;11.82;;;4.72;;
11951;SDS011;6036;41.840;23.486;2022-11-04T00:09:04;14.00;;;5.25;;
11951;SDS011;6036;41.840;23.486;2022-11-04T00:11:31;7.43;;;4.25;;
11951;SDS011;6036;41.840;23.486;2022-11-04T00:14:16;12.32;;;4.97;;
11951;SDS011;6036;41.840;23.486;2022-11-04T00:16:42;10.38;;;4.43;;
11951;SDS011;6036;41.840;23.486;2022-11-04T00:19:26;11.07;;;5.63;;
11951;SDS011;6036;41.840;23.486;2022-11-04T00:21:51;12.40;;;4.82;;
11951;SDS011;6036;41.840;23.486;2022-11-04T00:24:35;10.43;;;4.90;;
11951;SDS011;6036;41.840;23.486;2022-11-04T00:27:16;11.10;;;4.78;;
11951;SDS011;6036;41.840;23.486;2022-11-04T00:30:02;12.95;;;5.63;;
11951;SDS011;6036;41.840;23.486;2022-11-04T00:32:32;12.57;;;6.10;;
11951;SDS011;6036;41.840;23.486;2022-11-04T00:35:16;9.70;;;5.68;;
11951;SDS011;6036;41.840;23.486;2022-11-04T00:37:42;12.00;;;5.13;;
11951;SDS011;6036;41.840;23.486;2022-11-04T00:40:09;11.18;;;4.88;;
11951;SDS011;6036;41.840;23.486;2022-11-04T00:42:39;12.10;;;5.30;;
11951;SDS011;6036;41.840;23.486;2022-11-04T00:45:05;8.15;;;5.05;;
11951;SDS011;6036;41.840;23.486;2022-11-04T00:47:31;11.60;;;5.28;;
11951;SDS011;6036;41.840;23.486;2022-11-04T00:49:56;11.38;;;5.65;;
11951;SDS011;6036;41.840;23.486;2022-11-04T00:52:22;11.98;;;5.57;;
11951;SDS011;6036;41.840;23.486;2022-11-04T00:54:47;18.15;;;5.07;;
11951;SDS011;6036;41.840;23.486;2022-11-04T00:57:13;10.75;;;4.60;;
11951;SDS011;6036;41.840;23.486;2022-11-04T00:59:39;10.95;;;5.00;;
11951;SDS011;6036;41.840;23.486;2022-11-04T01:02:05;11.57;;;4.90;;
11951;SDS011;6036;41.840;23.486;2022-11-04T01:04:32;12.02;;;5.45;;
11951;SDS011;6036;41.840;23.486;2022-11-04T01:06:57;11.25;;;4.80;;
11951;SDS011;6036;41.840;23.486;2022-11-04T01:09:22;8.65;;;4.78;;
11951;SDS011;6036;41.840;23.486;2022-11-04T01:11:48;15.43;;;5.03;;
11951;SDS011;6036;41.840;23.486;2022-11-04T01:14:14;8.68;;;4.22;;
11951;SDS011;6036;41.840;23.486;2022-11-04T01:16:39;9.00;;;4.30;;
11951;SDS011;6036;41.840;23.486;2022-11-04T01:19:05;8.48;;;4.60;;
11951;SDS011;6036;41.840;23.486;2022-11-04T01:21:31;11.95;;;4.90;;
11951;SDS011;6036;41.840;23.486;2022-11-04T01:23:56;11.20;;;4.35;;
11951;SDS011;6036;41.840;23.486;2022-11-04T01:26:24;10.65;;;4.32;;
11951;SDS011;6036;41.840;23.486;2022-11-04T01:28:51;10.73;;;4.13;;
11951;SDS011;6036;41.840;23.486;2022-11-04T01:31:19;10.05;;;4.97;;
11951;SDS011;6036;41.840;23.486;2022-11-04T01:33:47;8.98;;;3.70;;
11951;SDS011;6036;41.840;23.486;2022-11-04T01:36:14;10.77;;;4.00;;
11951;SDS011;6036;41.840;23.486;2022-11-04T01:38:39;6.13;;;3.45;;
11951;SDS011;6036;41.840;23.486;2022-11-04T01:41:06;10.77;;;4.20;;
11951;SDS011;6036;41.840;23.486;2022-11-04T01:43:47;9.77;;;3.63;;
11951;SDS011;6036;41.840;23.486;2022-11-04T01:46:21;9.43;;;4.07;;
11951;SDS011;6036;41.840;23.486;2022-11-04T01:48:46;8.10;;;4.47;;
11951;SDS011;6036;41.840;23.486;2022-11-04T01:51:13;7.95;;;4.68;;
11951;SDS011;6036;41.840;23.486;2022-11-04T01:53:40;8.30;;;3.55;;
11951;SDS011;6036;41.840;23.486;2022-11-04T01:56:09;9.70;;;3.42;;
11951;SDS011;6036;41.840;23.486;2022-11-04T02:01:08;9.05;;;3.13;;
11951;SDS011;6036;41.840;23.486;2022-11-04T02:03:35;6.28;;;3.50;;
11951;SDS011;6036;41.840;23.486;2022-11-04T02:06:04;10.55;;;4.18;;
11951;SDS011;6036;41.840;23.486;2022-11-04T02:08:30;9.07;;;4.43;;
11951;SDS011;6036;41.840;23.486;2022-11-04T02:10:59;7.45;;;4.10;;
11951;SDS011;6036;41.840;23.486;2022-11-04T02:13:28;8.90;;;4.93;;
11951;SDS011;6036;41.840;23.486;2022-11-04T02:26:56;7.53;;;4.20;;
11951;SDS011;6036;41.840;23.486;2022-11-04T02:29:44;10.57;;;3.63;;
11951;SDS011;6036;41.840;23.486;2022-11-04T02:38:08;8.18;;;4.28;;
11951;SDS011;6036;41.840;23.486;2022-11-04T02:43:19;12.23;;;3.55;;
11951;SDS011;6036;41.840;23.486;2022-11-04T02:46:31;8.10;;;3.65;;
11951;SDS011;6036;41.840;23.486;2022-11-04T02:51:40;8.90;;;3.60;;
11951;SDS011;6036;41.840;23.486;2022-11-04T02:54:11;6.60;;;3.20;;
11951;SDS011;6036;41.840;23.486;2022-11-04T02:56:48;4.90;;;3.05;;
11951;SDS011;6036;41.840;23.486;2022-11-04T02:59:18;5.68;;;2.80;;
11951;SDS011;6036;41.840;23.486;2022-11-04T03:01:55;6.50;;;3.17;;
11951;SDS011;6036;41.840;23.486;2022-11-04T03:04:26;8.23;;;3.13;;
11951;SDS011;6036;41.840;23.486;2022-11-04T03:06:56;5.53;;;3.33;;
11951;SDS011;6036;41.840;23.486;2022-11-04T03:09:24;8.88;;;3.50;;
11951;SDS011;6036;41.840;23.486;2022-11-04T03:11:58;7.93;;;3.78;;
11951;SDS011;6036;41.840;23.486;2022-11-04T03:14:29;12.55;;;4.05;;
11951;SDS011;6036;41.840;23.486;2022-11-04T03:17:02;4.28;;;2.70;;
11951;SDS011;6036;41.840;23.486;2022-11-04T03:19:39;7.93;;;3.42;;
11951;SDS011;6036;41.840;23.486;2022-11-04T03:22:18;6.50;;;3.88;;
11951;SDS011;6036;41.840;23.486;2022-11-04T03:24:46;6.57;;;3.33;;
11951;SDS011;6036;41.840;23.486;2022-11-04T03:30:16;8.73;;;2.97;;
11951;SDS011;6036;41.840;23.486;2022-11-04T03:35:28;10.10;;;3.78;;
11951;SDS011;6036;41.840;23.486;2022-11-04T03:37:54;8.70;;;3.40;;
11951;SDS011;6036;41.840;23.486;2022-11-04T03:40:21;8.73;;;3.47;;
11951;SDS011;6036;41.840;23.486;2022-11-04T03:42:52;5.50;;;2.78;;
11951;SDS011;6036;41.840;23.486;2022-11-04T03:45:21;7.03;;;3.08;;
11951;SDS011;6036;41.840;23.486;2022-11-04T03:47:47;4.18;;;2.90;;
11951;SDS011;6036;41.840;23.486;2022-11-04T03:50:16;7.50;;;3.35;;
11951;SDS011;6036;41.840;23.486;2022-11-04T03:52:53;10.68;;;3.70;;
11951;SDS011;6036;41.840;23.486;2022-11-04T03:55:20;6.25;;;3.90;;
11951;SDS011;6036;41.840;23.486;2022-11-04T03:58:05;5.13;;;2.45;;
11951;SDS011;6036;41.840;23.486;2022-11-04T04:00:45;6.63;;;3.90;;
11951;SDS011;6036;41.840;23.486;2022-11-04T04:03:16;7.10;;;4.13;;
11951;SDS011;6036;41.840;23.486;2022-11-04T04:05:54;6.75;;;4.43;;
11951;SDS011;6036;41.840;23.486;2022-11-04T04:08:33;8.52;;;3.33;;
11951;SDS011;6036;41.840;23.486;2022-11-04T04:11:17;10.98;;;6.45;;
11951;SDS011;6036;41.840;23.486;2022-11-04T04:17:01;8.15;;;4.45;;
11951;SDS011;6036;41.840;23.486;2022-11-04T04:19:32;10.45;;;4.82;;
11951;SDS011;6036;41.840;23.486;2022-11-04T04:22:03;14.15;;;5.32;;
11951;SDS011;6036;41.840;23.486;2022-11-04T04:24:36;10.35;;;4.60;;
11951;SDS011;6036;41.840;23.486;2022-11-04T04:27:25;7.93;;;3.73;;
11951;SDS011;6036;41.840;23.486;2022-11-04T04:29:56;11.55;;;3.65;;
11951;SDS011;6036;41.840;23.486;2022-11-04T04:32:37;7.22;;;3.75;;
11951;SDS011;6036;41.840;23.486;2022-11-04T04:37:51;6.45;;;3.03;;
11951;SDS011;6036;41.840;23.486;2022-11-04T04:40:19;8.95;;;3.70;;
11951;SDS011;6036;41.840;23.486;2022-11-04T04:43:12;6.20;;;3.10;;
11951;SDS011;6036;41.840;23.486;2022-11-04T04:45:58;9.63;;;3.30;;
11951;SDS011;6036;41.840;23.486;2022-11-04T04:48:24;7.68;;;2.92;;
11951;SDS011;6036;41.840;23.486;2022-11-04T04:50:50;7.22;;;2.95;;
11951;SDS011;6036;41.840;23.486;2022-11-04T04:53:21;7.88;;;3.67;;
11951;SDS011;6036;41.840;23.486;2022-11-04T04:55:46;4.28;;;3.42;;
11951;SDS011;6036;41.840;23.486;2022-11-04T04:58:12;8.77;;;3.38;;
11951;SDS011;6036;41.840;23.486;2022-11-04T05:00:37;8.35;;;3.60;;
11951;SDS011;6036;41.840;23.486;2022-11-04T05:03:03;7.22;;;3.33;;
11951;SDS011;6036;41.840;23.486;2022-11-04T05:05:28;9.80;;;3.33;;
11951;SDS011;6036;41.840;23.486;2022-11-04T05:07:53;7.10;;;3.08;;
11951;SDS011;6036;41.840;23.486;2022-11-04T05:10:19;8.63;;;2.97;;
11951;SDS011;6036;41.840;23.486;2022-11-04T05:12:44;8.10;;;3.60;;
11951;SDS011;6036;41.840;23.486;2022-11-04T05:15:29;8.45;;;3.63;;
11951;SDS011;6036;41.840;23.486;2022-11-04T05:18:00;10.85;;;3.63;;
11951;SDS011;6036;41.840;23.486;2022-11-04T05:20:26;7.78;;;3.15;;
11951;SDS011;6036;41.840;23.486;2022-11-04T05:22:53;6.25;;;3.15;;
11951;SDS011;6036;41.840;23.486;2022-11-04T05:25:18;6.10;;;3.08;;
11951;SDS011;6036;41.840;23.486;2022-11-04T05:27:44;6.47;;;4.10;;
11951;SDS011;6036;41.840;23.486;2022-11-04T05:30:10;9.90;;;3.88;;
11951;SDS011;6036;41.840;23.486;2022-11-04T05:32:36;7.88;;;3.03;;
11951;SDS011;6036;41.840;23.486;2022-11-04T05:35:01;6.70;;;3.60;;
11951;SDS011;6036;41.840;23.486;2022-11-04T05:37:27;7.85;;;3.63;;
11951;SDS011;6036;41.840;23.486;2022-11-04T05:39:52;7.43;;;3.42;;
11951;SDS011;6036;41.840;23.486;2022-11-04T05:42:18;7.93;;;3.35;;
11951;SDS011;6036;41.840;23.486;2022-11-04T05:44:43;6.88;;;3.65;;
11951;SDS011;6036;41.840;23.486;2022-11-04T05:47:08;10.98;;;3.35;;
11951;SDS011;6036;41.840;23.486;2022-11-04T05:49:34;10.38;;;3.67;;
11951;SDS011;6036;41.840;23.486;2022-11-04T05:51:59;8.38;;;3.50;;
11951;SDS011;6036;41.840;23.486;2022-11-04T05:54:25;7.75;;;3.30;;
11951;SDS011;6036;41.840;23.486;2022-11-04T05:56:50;10.90;;;4.40;;
11951;SDS011;6036;41.840;23.486;2022-11-04T05:59:16;8.02;;;4.60;;
11951;SDS011;6036;41.840;23.486;2022-11-04T06:01:42;8.15;;;3.58;;
11951;SDS011;6036;41.840;23.486;2022-11-04T06:04:10;10.45;;;4.50;;
11951;SDS011;6036;41.840;23.486;2022-11-04T06:06:38;10.77;;;4.57;;
11951;SDS011;6036;41.840;23.486;2022-11-04T06:09:04;12.60;;;4.20;;
11951;SDS011;6036;41.840;23.486;2022-11-04T06:11:29;5.38;;;3.83;;
11951;SDS011;6036;41.840;23.486;2022-11-04T06:13:56;7.75;;;4.07;;
11951;SDS011;6036;41.840;23.486;2022-11-04T06:16:22;9.00;;;4.28;;
11951;SDS011;6036;41.840;23.486;2022-11-04T06:18:48;6.97;;;3.80;;
11951;SDS011;6036;41.840;23.486;2022-11-04T06:23:39;34.25;;;19.33;;
11951;SDS011;6036;41.840;23.486;2022-11-04T06:26:06;33.08;;;17.90;;
11951;SDS011;6036;41.840;23.486;2022-11-04T06:28:32;23.92;;;13.88;;
11951;SDS011;6036;41.840;23.486;2022-11-04T06:30:58;23.60;;;13.32;;
11951;SDS011;6036;41.840;23.486;2022-11-04T06:33:24;24.25;;;11.40;;
11951;SDS011;6036;41.840;23.486;2022-11-04T06:35:50;24.25;;;11.75;;
11951;SDS011;6036;41.840;23.486;2022-11-04T06:38:16;31.58;;;16.67;;
11951;SDS011;6036;41.840;23.486;2022-11-04T06:40:41;35.55;;;20.98;;
11951;SDS011;6036;41.840;23.486;2022-11-04T06:43:07;45.25;;;26.92;;
11951;SDS011;6036;41.840;23.486;2022-11-04T06:45:32;42.03;;;25.73;;
11951;SDS011;6036;41.840;23.486;2022-11-04T06:47:57;40.67;;;25.92;;
11951;SDS011;6036;41.840;23.486;2022-11-04T06:50:23;45.13;;;26.73;;
11951;SDS011;6036;41.840;23.486;2022-11-04T06:52:48;40.50;;;25.80;;
11951;SDS011;6036;41.840;23.486;2022-11-04T06:55:14;37.78;;;24.85;;
11951;SDS011;6036;41.840;23.486;2022-11-04T06:57:39;41.28;;;27.30;;
11951;SDS011;6036;41.840;23.486;2022-11-04T07:00:05;42.25;;;28.30;;
11951;SDS011;6036;41.840;23.486;2022-11-04T07:02:31;44.45;;;27.30;;
11951;SDS011;6036;41.840;23.486;2022-11-04T07:04:56;40.55;;;25.70;;
11951;SDS011;6036;41.840;23.486;2022-11-04T07:07:22;38.80;;;25.70;;
11951;SDS011;6036;41.840;23.486;2022-11-04T07:09:47;57.75;;;33.92;;
11951;SDS011;6036;41.840;23.486;2022-11-04T07:12:12;40.25;;;26.90;;
11951;SDS011;6036;41.840;23.486;2022-11-04T07:14:38;38.13;;;25.75;;
11951;SDS011;6036;41.840;23.486;2022-11-04T07:17:03;44.85;;;26.48;;
11951;SDS011;6036;41.840;23.486;2022-11-04T07:19:29;48.78;;;27.92;;
11951;SDS011;6036;41.840;23.486;2022-11-04T07:21:55;44.13;;;29.75;;
11951;SDS011;6036;41.840;23.486;2022-11-04T07:24:21;43.38;;;28.95;;
11951;SDS011;6036;41.840;23.486;2022-11-04T07:26:47;42.33;;;26.90;;
11951;SDS011;6036;41.840;23.486;2022-11-04T07:29:12;43.60;;;26.13;;
11951;SDS011;6036;41.840;23.486;2022-11-04T07:31:38;43.28;;;25.95;;
11951;SDS011;6036;41.840;23.486;2022-11-04T07:34:03;37.60;;;25.00;;
11951;SDS011;6036;41.840;23.486;2022-11-04T07:36:29;32.67;;;21.90;;
11951;SDS011;6036;41.840;23.486;2022-11-04T07:38:54;36.08;;;24.98;;
11951;SDS011;6036;41.840;23.486;2022-11-04T07:41:20;36.35;;;25.33;;
11951;SDS011;6036;41.840;23.486;2022-11-04T07:43:50;39.75;;;24.95;;
11951;SDS011;6036;41.840;23.486;2022-11-04T07:46:16;35.45;;;24.30;;
11951;SDS011;6036;41.840;23.486;2022-11-04T07:48:42;35.58;;;22.63;;
11951;SDS011;6036;41.840;23.486;2022-11-04T07:51:10;34.40;;;21.00;;
11951;SDS011;6036;41.840;23.486;2022-11-04T07:53:38;29.80;;;21.00;;
11951;SDS011;6036;41.840;23.486;2022-11-04T07:56:05;32.83;;;21.35;;
11951;SDS011;6036;41.840;23.486;2022-11-04T07:58:32;27.15;;;18.40;;
11951;SDS011;6036;41.840;23.486;2022-11-04T08:00:58;26.23;;;18.95;;
11951;SDS011;6036;41.840;23.486;2022-11-04T08:03:25;29.58;;;19.75;;
11951;SDS011;6036;41.840;23.486;2022-11-04T08:05:54;27.98;;;19.85;;
11951;SDS011;6036;41.840;23.486;2022-11-04T08:08:23;25.77;;;18.25;;
11951;SDS011;6036;41.840;23.486;2022-11-04T08:10:53;25.92;;;18.20;;
11951;SDS011;6036;41.840;23.486;2022-11-04T08:13:19;27.83;;;18.25;;
11951;SDS011;6036;41.840;23.486;2022-11-04T08:15:44;29.50;;;18.58;;
11951;SDS011;6036;41.840;23.486;2022-11-04T08:18:09;30.65;;;18.83;;
11951;SDS011;6036;41.840;23.486;2022-11-04T08:20:35;28.75;;;17.77;;
11951;SDS011;6036;41.840;23.486;2022-11-04T08:23:02;22.92;;;15.68;;
11951;SDS011;6036;41.840;23.486;2022-11-04T08:25:28;22.55;;;15.95;;
11951;SDS011;6036;41.840;23.486;2022-11-04T08:27:53;26.88;;;16.13;;
11951;SDS011;6036;41.840;23.486;2022-11-04T08:30:18;22.63;;;14.77;;
11951;SDS011;6036;41.840;23.486;2022-11-04T08:32:44;20.27;;;14.40;;
11951;SDS011;6036;41.840;23.486;2022-11-04T08:35:09;16.15;;;12.30;;
11951;SDS011;6036;41.840;23.486;2022-11-04T08:37:36;14.68;;;11.15;;
11951;SDS011;6036;41.840;23.486;2022-11-04T08:40:02;20.75;;;11.27;;
11951;SDS011;6036;41.840;23.486;2022-11-04T08:42:29;17.67;;;9.57;;
11951;SDS011;6036;41.840;23.486;2022-11-04T08:44:55;13.93;;;10.35;;
11951;SDS011;6036;41.840;23.486;2022-11-04T08:47:20;16.98;;;11.02;;
11951;SDS011;6036;41.840;23.486;2022-11-04T08:49:45;17.35;;;10.82;;
11951;SDS011;6036;41.840;23.486;2022-11-04T08:52:11;18.42;;;11.25;;
11951;SDS011;6036;41.840;23.486;2022-11-04T08:54:36;15.15;;;11.32;;
11951;SDS011;6036;41.840;23.486;2022-11-04T08:57:02;16.02;;;11.70;;
11951;SDS011;6036;41.840;23.486;2022-11-04T08:59:27;14.35;;;10.88;;
11951;SDS011;6036;41.840;23.486;2022-11-04T09:01:53;15.77;;;11.20;;
11951;SDS011;6036;41.840;23.486;2022-11-04T09:04:19;19.85;;;10.88;;
11951;SDS011;6036;41.840;23.486;2022-11-04T09:06:44;16.00;;;10.88;;
11951;SDS011;6036;41.840;23.486;2022-11-04T09:09:12;16.63;;;11.13;;
11951;SDS011;6036;41.840;23.486;2022-11-04T09:11:40;17.95;;;11.00;;
11951;SDS011;6036;41.840;23.486;2022-11-04T09:14:06;15.05;;;10.13;;
11951;SDS011;6036;41.840;23.486;2022-11-04T09:16:33;15.73;;;10.32;;
11951;SDS011;6036;41.840;23.486;2022-11-04T09:19:00;13.90;;;9.65;;
11951;SDS011;6036;41.840;23.486;2022-11-04T09:21:26;17.02;;;9.90;;
11951;SDS011;6036;41.840;23.486;2022-11-04T09:23:53;12.43;;;9.10;;
11951;SDS011;6036;41.840;23.486;2022-11-04T09:26:19;11.02;;;8.70;;
11951;SDS011;6036;41.840;23.486;2022-11-04T09:28:46;13.85;;;8.57;;
11951;SDS011;6036;41.840;23.486;2022-11-04T09:31:13;13.55;;;8.60;;
11951;SDS011;6036;41.840;23.486;2022-11-04T09:36:06;12.05;;;8.70;;
11951;SDS011;6036;41.840;23.486;2022-11-04T09:38:33;11.90;;;8.40;;
11951;SDS011;6036;41.840;23.486;2022-11-04T09:40:59;15.63;;;9.23;;
11951;SDS011;6036;41.840;23.486;2022-11-04T09:46:09;15.50;;;8.95;;
11951;SDS011;6036;41.840;23.486;2022-11-04T09:48:42;13.20;;;9.05;;
11951;SDS011;6036;41.840;23.486;2022-11-04T09:51:11;16.45;;;9.52;;
11951;SDS011;6036;41.840;23.486;2022-11-04T09:53:43;18.73;;;9.38;;
11951;SDS011;6036;41.840;23.486;2022-11-04T09:58:37;15.70;;;8.68;;
11951;SDS011;6036;41.840;23.486;2022-11-04T10:15:12;21.55;;;10.07;;
11951;SDS011;6036;41.840;23.486;2022-11-04T10:25:56;21.45;;;10.02;;
11951;SDS011;6036;41.840;23.486;2022-11-04T10:28:33;14.95;;;8.73;;
11951;SDS011;6036;41.840;23.486;2022-11-04T10:31:05;12.85;;;7.93;;
11951;SDS011;6036;41.840;23.486;2022-11-04T10:33:33;20.40;;;8.73;;
11951;SDS011;6036;41.840;23.486;2022-11-04T10:36:06;14.77;;;8.45;;
11951;SDS011;6036;41.840;23.486;2022-11-04T10:38:38;14.60;;;8.68;;
11951;SDS011;6036;41.840;23.486;2022-11-04T10:41:11;15.25;;;7.13;;
11951;SDS011;6036;41.840;23.486;2022-11-04T10:43:43;11.05;;;8.10;;
11951;SDS011;6036;41.840;23.486;2022-11-04T10:51:27;11.38;;;7.03;;
11951;SDS011;6036;41.840;23.486;2022-11-04T10:53:53;16.77;;;8.13;;
11951;SDS011;6036;41.840;23.486;2022-11-04T10:56:24;15.20;;;7.28;;
11951;SDS011;6036;41.840;23.486;2022-11-04T10:58:59;13.85;;;7.47;;
11951;SDS011;6036;41.840;23.486;2022-11-04T11:01:39;19.77;;;7.95;;
11951;SDS011;6036;41.840;23.486;2022-11-04T11:04:13;14.52;;;6.93;;
11951;SDS011;6036;41.840;23.486;2022-11-04T11:06:53;18.73;;;6.55;;
11951;SDS011;6036;41.840;23.486;2022-11-04T11:09:21;17.98;;;7.57;;
11951;SDS011;6036;41.840;23.486;2022-11-04T11:11:56;13.88;;;7.30;;
11951;SDS011;6036;41.840;23.486;2022-11-04T11:14:42;14.15;;;6.97;;
11951;SDS011;6036;41.840;23.486;2022-11-04T11:19:59;11.75;;;6.50;;
11951;SDS011;6036;41.840;23.486;2022-11-04T11:22:32;13.38;;;7.18;;
11951;SDS011;6036;41.840;23.486;2022-11-04T11:25:33;16.02;;;8.05;;
11951;SDS011;6036;41.840;23.486;2022-11-04T11:27:54;16.00;;;8.65;;
11951;SDS011;6036;41.840;23.486;2022-11-04T11:30:26;17.38;;;8.20;;
11951;SDS011;6036;41.840;23.486;2022-11-04T11:32:53;32.63;;;17.02;;
11951;SDS011;6036;41.840;23.486;2022-11-04T11:35:21;15.23;;;7.83;;
11951;SDS011;6036;41.840;23.486;2022-11-04T11:37:51;14.20;;;8.45;;
11951;SDS011;6036;41.840;23.486;2022-11-04T11:40:31;24.15;;;11.27;;
11951;SDS011;6036;41.840;23.486;2022-11-04T11:43:02;15.18;;;7.68;;
11951;SDS011;6036;41.840;23.486;2022-11-04T11:45:29;12.38;;;5.72;;
11951;SDS011;6036;41.840;23.486;2022-11-04T11:47:56;12.80;;;5.57;;
11951;SDS011;6036;41.840;23.486;2022-11-04T11:50:28;11.13;;;5.57;;
11951;SDS011;6036;41.840;23.486;2022-11-04T11:53:13;10.07;;;5.70;;
11951;SDS011;6036;41.840;23.486;2022-11-04T11:55:42;10.60;;;6.55;;
11951;SDS011;6036;41.840;23.486;2022-11-04T11:58:18;12.02;;;5.85;;
11951;SDS011;6036;41.840;23.486;2022-11-04T12:00:53;12.38;;;5.28;;
11951;SDS011;6036;41.840;23.486;2022-11-04T12:03:34;14.15;;;6.13;;
11951;SDS011;6036;41.840;23.486;2022-11-04T12:17:01;11.18;;;5.85;;
11951;SDS011;6036;41.840;23.486;2022-11-04T12:19:36;16.05;;;5.50;;
11951;SDS011;6036;41.840;23.486;2022-11-04T12:30:31;9.98;;;4.72;;
11951;SDS011;6036;41.840;23.486;2022-11-04T12:35:55;11.63;;;6.10;;
11951;SDS011;6036;41.840;23.486;2022-11-04T12:41:13;12.38;;;5.35;;
11951;SDS011;6036;41.840;23.486;2022-11-04T12:43:56;10.00;;;5.63;;
11951;SDS011;6036;41.840;23.486;2022-11-04T12:52:37;9.48;;;4.85;;
11951;SDS011;6036;41.840;23.486;2022-11-04T12:58:13;9.35;;;4.90;;
11951;SDS011;6036;41.840;23.486;2022-11-04T13:00:31;9.15;;;5.00;;
11951;SDS011;6036;41.840;23.486;2022-11-04T13:03:20;7.53;;;4.70;;
11951;SDS011;6036;41.840;23.486;2022-11-04T13:06:00;11.40;;;4.57;;
11951;SDS011;6036;41.840;23.486;2022-11-04T13:08:48;9.48;;;5.13;;
11951;SDS011;6036;41.840;23.486;2022-11-04T13:11:32;14.73;;;7.90;;
11951;SDS011;6036;41.840;23.486;2022-11-04T13:16:45;14.05;;;5.78;;
11951;SDS011;6036;41.840;23.486;2022-11-04T13:22:37;11.88;;;5.07;;
11951;SDS011;6036;41.840;23.486;2022-11-04T13:27:37;6.25;;;3.97;;
11951;SDS011;6036;41.840;23.486;2022-11-04T13:33:17;13.75;;;4.93;;
11951;SDS011;6036;41.840;23.486;2022-11-04T13:38:45;12.63;;;5.60;;
11951;SDS011;6036;41.840;23.486;2022-11-04T13:44:00;11.00;;;4.95;;
11951;SDS011;6036;41.840;23.486;2022-11-04T13:46:30;8.00;;;4.95;;
11951;SDS011;6036;41.840;23.486;2022-11-04T13:51:35;12.05;;;5.13;;
11951;SDS011;6036;41.840;23.486;2022-11-04T13:54:04;8.15;;;5.10;;
11951;SDS011;6036;41.840;23.486;2022-11-04T13:56:58;9.32;;;5.57;;
11951;SDS011;6036;41.840;23.486;2022-11-04T13:59:29;7.77;;;4.83;;
11951;SDS011;6036;41.840;23.486;2022-11-04T14:13:53;9.65;;;6.15;;
11951;SDS011;6036;41.840;23.486;2022-11-04T14:18:41;8.15;;;4.93;;
11951;SDS011;6036;41.840;23.486;2022-11-04T14:21:12;9.35;;;5.32;;
11951;SDS011;6036;41.840;23.486;2022-11-04T14:26:08;7.45;;;4.68;;
11951;SDS011;6036;41.840;23.486;2022-11-04T14:28:36;10.68;;;5.70;;
11951;SDS011;6036;41.840;23.486;2022-11-04T14:31:05;13.27;;;6.38;;
11951;SDS011;6036;41.840;23.486;2022-11-04T14:33:55;8.32;;;4.80;;
11951;SDS011;6036;41.840;23.486;2022-11-04T14:44:07;5.85;;;4.07;;
11951;SDS011;6036;41.840;23.486;2022-11-04T14:46:47;6.88;;;4.22;;
11951;SDS011;6036;41.840;23.486;2022-11-04T14:49:36;12.15;;;4.47;;
11951;SDS011;6036;41.840;23.486;2022-11-04T14:52:05;7.97;;;4.22;;
11951;SDS011;6036;41.840;23.486;2022-11-04T14:54:55;7.78;;;3.67;;
11951;SDS011;6036;41.840;23.486;2022-11-04T14:57:27;10.65;;;3.75;;
11951;SDS011;6036;41.840;23.486;2022-11-04T14:59:53;9.68;;;3.80;;
11951;SDS011;6036;41.840;23.486;2022-11-04T15:02:23;7.50;;;3.88;;
11951;SDS011;6036;41.840;23.486;2022-11-04T15:04:57;5.57;;;3.03;;
11951;SDS011;6036;41.840;23.486;2022-11-04T15:09:55;6.15;;;2.85;;
11951;SDS011;6036;41.840;23.486;2022-11-04T15:12:20;4.50;;;2.67;;
11951;SDS011;6036;41.840;23.486;2022-11-04T15:18:02;10.55;;;2.33;;
11951;SDS011;6036;41.840;23.486;2022-11-04T15:20:34;4.20;;;2.42;;
11951;SDS011;6036;41.840;23.486;2022-11-04T15:23:03;5.25;;;2.42;;
11951;SDS011;6036;41.840;23.486;2022-11-04T15:25:33;7.40;;;2.78;;
11951;SDS011;6036;41.840;23.486;2022-11-04T15:27:58;5.72;;;2.78;;
11951;SDS011;6036;41.840;23.486;2022-11-04T15:30:28;5.78;;;2.50;;
11951;SDS011;6036;41.840;23.486;2022-11-04T15:32:59;3.38;;;2.40;;
11951;SDS011;6036;41.840;23.486;2022-11-04T15:35:27;5.43;;;2.00;;
11951;SDS011;6036;41.840;23.486;2022-11-04T15:37:55;7.25;;;2.92;;
11951;SDS011;6036;41.840;23.486;2022-11-04T15:40:25;6.07;;;2.30;;
11951;SDS011;6036;41.840;23.486;2022-11-04T15:42:51;4.15;;;2.63;;
11951;SDS011;6036;41.840;23.486;2022-11-04T15:51:15;7.07;;;3.40;;
11951;SDS011;6036;41.840;23.486;2022-11-04T15:54:30;12.82;;;3.88;;
11951;SDS011;6036;41.840;23.486;2022-11-04T15:56:52;5.50;;;2.42;;
11951;SDS011;6036;41.840;23.486;2022-11-04T15:59:24;5.57;;;2.40;;
11951;SDS011;6036;41.840;23.486;2022-11-04T16:01:53;9.43;;;3.75;;
11951;SDS011;6036;41.840;23.486;2022-11-04T16:04:20;6.40;;;2.15;;
11951;SDS011;6036;41.840;23.486;2022-11-04T16:07:01;3.00;;;2.00;;
11951;SDS011;6036;41.840;23.486;2022-11-04T16:09:29;5.25;;;2.13;;
11951;SDS011;6036;41.840;23.486;2022-11-04T16:12:14;4.43;;;1.88;;
11951;SDS011;6036;41.840;23.486;2022-11-04T16:14:51;6.97;;;2.50;;
11951;SDS011;6036;41.840;23.486;2022-11-04T16:17:18;6.07;;;2.75;;
11951;SDS011;6036;41.840;23.486;2022-11-04T16:19:48;4.10;;;2.22;;
11951;SDS011;6036;41.840;23.486;2022-11-04T16:22:18;6.57;;;2.90;;
11951;SDS011;6036;41.840;23.486;2022-11-04T16:24:48;13.40;;;3.88;;
11951;SDS011;6036;41.840;23.486;2022-11-04T16:27:17;4.47;;;2.40;;
11951;SDS011;6036;41.840;23.486;2022-11-04T16:29:49;3.95;;;2.22;;
11951;SDS011;6036;41.840;23.486;2022-11-04T16:32:25;5.53;;;2.67;;
11951;SDS011;6036;41.840;23.486;2022-11-04T16:34:53;8.00;;;3.35;;
11951;SDS011;6036;41.840;23.486;2022-11-04T16:37:21;6.25;;;2.58;;
11951;SDS011;6036;41.840;23.486;2022-11-04T16:39:47;3.97;;;2.40;;
11951;SDS011;6036;41.840;23.486;2022-11-04T16:42:14;6.07;;;2.35;;
11951;SDS011;6036;41.840;23.486;2022-11-04T16:44:47;6.30;;;2.22;;
11951;SDS011;6036;41.840;23.486;2022-11-04T16:47:19;9.73;;;2.97;;
11951;SDS011;6036;41.840;23.486;2022-11-04T16:49:45;10.80;;;4.53;;
11951;SDS011;6036;41.840;23.486;2022-11-04T16:52:14;13.30;;;6.38;;
11951;SDS011;6036;41.840;23.486;2022-11-04T16:54:46;17.00;;;6.88;;
11951;SDS011;6036;41.840;23.486;2022-11-04T16:57:12;50.42;;;23.45;;
11951;SDS011;6036;41.840;23.486;2022-11-04T16:59:39;72.05;;;33.60;;
11951;SDS011;6036;41.840;23.486;2022-11-04T17:02:18;76.57;;;36.45;;
11951;SDS011;6036;41.840;23.486;2022-11-04T17:07:10;82.68;;;42.42;;
11951;SDS011;6036;41.840;23.486;2022-11-04T17:09:36;38.00;;;18.23;;
11951;SDS011;6036;41.840;23.486;2022-11-04T17:12:01;14.77;;;7.40;;
11951;SDS011;6036;41.840;23.486;2022-11-04T17:14:27;14.73;;;6.95;;
11951;SDS011;6036;41.840;23.486;2022-11-04T17:16:53;17.65;;;7.82;;
11951;SDS011;6036;41.840;23.486;2022-11-04T17:19:18;16.15;;;8.38;;
11951;SDS011;6036;41.840;23.486;2022-11-04T17:21:44;17.98;;;9.85;;
11951;SDS011;6036;41.840;23.486;2022-11-04T17:24:10;22.15;;;11.38;;
11951;SDS011;6036;41.840;23.486;2022-11-04T17:26:36;36.30;;;17.02;;
11951;SDS011;6036;41.840;23.486;2022-11-04T17:29:02;35.08;;;18.52;;
11951;SDS011;6036;41.840;23.486;2022-11-04T17:31:27;50.20;;;24.40;;
11951;SDS011;6036;41.840;23.486;2022-11-04T17:33:53;33.28;;;16.90;;
11951;SDS011;6036;41.840;23.486;2022-11-04T17:36:18;24.92;;;10.52;;
11951;SDS011;6036;41.840;23.486;2022-11-04T17:38:45;20.02;;;10.27;;
11951;SDS011;6036;41.840;23.486;2022-11-04T17:41:11;14.82;;;7.00;;